Time;durP1;ratioP1;P1;durP2;ratioP2;P2;SDS_P1;SDS_P2;PMS_P1;PMS_P2;Temp;Humidity;BMP_temperature;BMP_pressure;BME280_temperature;BME280_humidity;BME280_pressure;Samples;Min_cycle;Max_cycle;Signal;HPM_P1;HPM_P2
2023/08/09 00:01:31;;;;;;;;;4.33;4.00;;;;;;;;5053374;28;50951;-60
2023/08/09 00:03:56;;;;;;;;;3.00;3.00;;;;;;;;5053119;28;51358;-61
2023/08/09 00:06:22;;;;;;;;;3.00;3.00;;;;;;;;5048750;28;51145;-61
2023/08/09 00:08:47;;;;;;;;;4.00;4.00;;;;;;;;5052229;28;51275;-60
2023/08/09 00:11:12;;;;;;;;;4.00;3.00;;;;;;;;5053288;28;50892;-61
2023/08/09 00:13:37;;;;;;;;;4.33;4.33;;;;;;;;5053033;28;51236;-61
2023/08/09 00:16:03;;;;;;;;;3.33;3.33;;;;;;;;5053021;28;51035;-60
2023/08/09 00:18:28;;;;;;;;;3.67;3.00;;;;;;;;5052754;28;53355;-61
2023/08/09 00:20:53;;;;;;;;;3.00;2.00;;;;;;;;5052217;28;51014;-60
2023/08/09 00:23:21;;;;;;;;;4.00;4.00;;;;;;;;5052253;28;51120;-61
2023/08/09 00:25:46;;;;;;;;;4.00;3.33;;;;;;;;5048279;28;51100;-62
2023/08/09 00:28:11;;;;;;;;;3.67;3.67;;;;;;;;5052543;28;52019;-61
2023/08/09 00:30:36;;;;;;;;;3.00;3.00;;;;;;;;5053079;28;51378;-61
2023/08/09 00:33:03;;;;;;;;;7.00;4.67;;;;;;;;5052865;28;50966;-61
2023/08/09 00:35:28;;;;;;;;;3.33;3.33;;;;;;;;5053194;28;51311;-61
2023/08/09 00:37:53;;;;;;;;;3.67;3.67;;;;;;;;5052571;28;52952;-60
2023/08/09 00:40:19;;;;;;;;;4.33;3.33;;;;;;;;5048634;28;51164;-61
2023/08/09 00:42:44;;;;;;;;;3.00;3.00;;;;;;;;5052392;28;50987;-61
2023/08/09 00:45:09;;;;;;;;;3.00;2.00;;;;;;;;5051461;28;51417;-61
2023/08/09 00:47:35;;;;;;;;;2.67;2.00;;;;;;;;5052470;28;51090;-62
2023/08/09 00:50:00;;;;;;;;;3.00;3.00;;;;;;;;5052692;28;51207;-60
2023/08/09 00:52:26;;;;;;;;;3.00;3.00;;;;;;;;5052302;28;51097;-61
2023/08/09 00:54:52;;;;;;;;;3.00;3.00;;;;;;;;5052842;28;51169;-61
2023/08/09 00:57:17;;;;;;;;;3.00;3.00;;;;;;;;5052253;28;51593;-61
2023/08/09 00:59:42;;;;;;;;;3.00;3.00;;;;;;;;5046431;28;50951;-61
2023/08/09 01:02:08;;;;;;;;;5.00;3.33;;;;;;;;5052347;28;50887;-61
2023/08/09 01:04:33;;;;;;;;;3.00;3.00;;;;;;;;5052673;28;51220;-62
2023/08/09 01:07:04;;;;;;;;;2.00;2.00;;;;;;;;5051833;28;51591;-61
2023/08/09 01:09:41;;;;;;;;;3.00;3.00;;;;;;;;5052208;28;51014;-60
2023/08/09 01:12:10;;;;;;;;;1.33;1.33;;;;;;;;5052153;28;51127;-60
2023/08/09 01:14:37;;;;;;;;;3.33;3.33;;;;;;;;5047828;28;51164;-61
2023/08/09 01:17:04;;;;;;;;;2.33;2.33;;;;;;;;5051774;28;52010;-59
2023/08/09 01:19:37;;;;;;;;;2.67;2.33;;;;;;;;5052146;28;51103;-61
2023/08/09 01:22:04;;;;;;;;;3.00;2.67;;;;;;;;5051794;28;50969;-61
2023/08/09 01:24:30;;;;;;;;;2.67;2.67;;;;;;;;5052322;28;51149;-61
2023/08/09 01:26:55;;;;;;;;;3.00;3.00;;;;;;;;5050520;28;53032;-61
2023/08/09 01:29:26;;;;;;;;;;;;;;;;;;2791598;28;44259687;-61
2023/08/09 01:31:51;;;;;;;;;3.00;3.00;;;;;;;;5051286;28;51507;-61
2023/08/09 01:34:17;;;;;;;;;3.00;3.00;;;;;;;;5048048;28;51078;-61
2023/08/09 01:36:46;;;;;;;;;2.00;2.00;;;;;;;;5055225;28;51184;-61
2023/08/09 01:39:13;;;;;;;;;3.00;2.67;;;;;;;;5055899;28;51003;-61
2023/08/09 01:41:39;;;;;;;;;3.00;2.67;;;;;;;;5055239;28;51847;-61
2023/08/09 01:44:05;;;;;;;;;4.00;4.00;;;;;;;;5055476;28;51032;-62
2023/08/09 01:46:30;;;;;;;;;3.00;3.00;;;;;;;;5055441;28;51245;-61
2023/08/09 01:49:14;;;;;;;;;3.00;2.67;;;;;;;;5053858;28;50867;-60
2023/08/09 01:51:40;;;;;;;;;2.33;2.33;;;;;;;;5043554;28;51872;-61
2023/08/09 01:54:06;;;;;;;;;2.00;2.00;;;;;;;;5054919;28;51190;-61
2023/08/09 01:58:31;;;;;;;;;3.00;2.00;;;;;;;;4708816;28;129378231;-61
2023/08/09 02:00:56;;;;;;;;;2.00;2.00;;;;;;;;5054816;28;50963;-61
2023/08/09 02:03:21;;;;;;;;;1.67;1.67;;;;;;;;5054291;28;51224;-61
2023/08/09 02:05:47;;;;;;;;;3.00;3.00;;;;;;;;5052677;28;51115;-61
2023/08/09 02:08:12;;;;;;;;;3.00;3.00;;;;;;;;5054715;28;51052;-61
2023/08/09 02:10:38;;;;;;;;;3.00;2.33;;;;;;;;5054732;28;50942;-60
2023/08/09 02:13:03;;;;;;;;;2.00;2.00;;;;;;;;5054688;28;51247;-60
2023/08/09 02:15:28;;;;;;;;;2.67;2.00;;;;;;;;5054670;28;51406;-60
2023/08/09 02:17:57;;;;;;;;;1.00;1.00;;;;;;;;5054901;28;50900;-60
2023/08/09 02:20:23;;;;;;;;;2.00;2.00;;;;;;;;5054741;28;51297;-61
2023/08/09 02:22:48;;;;;;;;;2.33;2.33;;;;;;;;5050667;28;52327;-62
2023/08/09 02:25:14;;;;;;;;;3.00;3.00;;;;;;;;5053729;28;51290;-61
2023/08/09 02:27:42;;;;;;;;;2.00;2.00;;;;;;;;5054514;28;51027;-61
2023/08/09 02:30:07;;;;;;;;;2.00;2.00;;;;;;;;5054392;28;51056;-61
2023/08/09 02:32:36;;;;;;;;;2.00;2.00;;;;;;;;5054127;28;51725;-61
2023/08/09 02:35:02;;;;;;;;;3.00;3.00;;;;;;;;5054021;28;50925;-61
2023/08/09 02:37:27;;;;;;;;;3.00;2.67;;;;;;;;5053865;28;50863;-60
2023/08/09 02:39:53;;;;;;;;;2.00;2.00;;;;;;;;5054492;28;51089;-60
2023/08/09 02:42:18;;;;;;;;;4.67;2.67;;;;;;;;5051756;28;51806;-61
2023/08/09 02:44:44;;;;;;;;;1.00;1.00;;;;;;;;5054191;28;50993;-60
2023/08/09 02:47:09;;;;;;;;;2.00;2.00;;;;;;;;5054388;28;51008;-63
2023/08/09 02:49:34;;;;;;;;;1.00;1.00;;;;;;;;5054040;28;51122;-60
2023/08/09 02:52:00;;;;;;;;;2.33;2.00;;;;;;;;5053745;28;51803;-60
2023/08/09 02:54:25;;;;;;;;;2.67;2.33;;;;;;;;5053852;28;51118;-61
2023/08/09 02:56:50;;;;;;;;;2.00;2.00;;;;;;;;5053922;28;50875;-60
2023/08/09 02:59:15;;;;;;;;;2.67;2.67;;;;;;;;5045248;28;51062;-61
2023/08/09 03:01:41;;;;;;;;;2.00;2.00;;;;;;;;5053586;28;51985;-62
2023/08/09 03:04:06;;;;;;;;;2.00;2.00;;;;;;;;5053835;28;50927;-60
2023/08/09 03:06:32;;;;;;;;;2.00;2.00;;;;;;;;5053661;28;51014;-61
2023/08/09 03:08:57;;;;;;;;;2.00;2.00;;;;;;;;5053609;28;50982;-60
2023/08/09 03:11:24;;;;;;;;;2.00;1.33;;;;;;;;5053738;28;51131;-60
2023/08/09 03:13:50;;;;;;;;;2.00;2.00;;;;;;;;2259460;28;80123966;-61
2023/08/09 03:16:15;;;;;;;;;1.50;1.50;;;;;;;;3583411;28;30174659;-60
2023/08/09 03:26:32;;;;;;;;;;;;;;;;;;2541652;28;279083294;-62
2023/08/09 03:35:42;;;;;;;;;0.50;0.50;;;;;;;;2;234068372;234068372;-59
2023/08/09 03:44:42;;;;;;;;;1.50;1.50;;;;;;;;2;279084373;279084373;-59
2023/08/09 03:53:51;;;;;;;;;0.50;0.50;;;;;;;;2;234068698;234068698;-61
2023/08/09 04:02:52;;;;;;;;;0.50;0.50;;;;;;;;2;279082408;279082408;-61
2023/08/09 04:10:18;;;;;;;;;0.00;0.00;;;;;;;;2;234070074;234070074;-60
2023/08/09 04:12:44;;;;;;;;;2.33;2.33;;;;;;;;5050118;28;51150;-60
2023/08/09 04:15:10;;;;;;;;;2.25;2.25;;;;;;;;4295625;28;21706626;-60
2023/08/09 04:17:35;;;;;;;;;2.00;2.00;;;;;;;;5053028;28;51285;-60
2023/08/09 04:20:00;;;;;;;;;2.00;2.00;;;;;;;;5053004;28;51094;-61
2023/08/09 04:22:25;;;;;;;;;2.00;2.00;;;;;;;;5052673;28;50988;-61
2023/08/09 04:24:51;;;;;;;;;2.00;2.00;;;;;;;;5014169;28;1064800;-61
2023/08/09 04:27:16;;;;;;;;;2.00;2.00;;;;;;;;5054752;28;51167;-60
2023/08/09 04:29:42;;;;;;;;;2.00;2.00;;;;;;;;5052701;28;50951;-61
2023/08/09 04:32:07;;;;;;;;;2.00;2.00;;;;;;;;5053170;28;50886;-60
2023/08/09 04:34:32;;;;;;;;;2.00;1.33;;;;;;;;5053057;28;51336;-61
2023/08/09 04:36:57;;;;;;;;;3.00;2.00;;;;;;;;5052660;28;51240;-60
2023/08/09 04:45:22;;;;;;;;;;;;;;;;;;4010669;28;110164523;-63
2023/08/09 04:53:37;;;;;;;;;0.50;0.50;;;;;;;;2;261074850;261074850;-63
2023/08/09 05:03:20;;;;;;;;;1.00;1.00;;;;;;;;2;315093164;315093164;-62
2023/08/09 05:05:45;;;;;;;;;2.00;2.00;;;;;;;;4994092;28;1706764;-61
2023/08/09 05:08:10;;;;;;;;;2.00;1.67;;;;;;;;5056162;28;51301;-61
2023/08/09 05:10:35;;;;;;;;;2.00;2.00;;;;;;;;5055392;28;52786;-61
2023/08/09 05:13:14;;;;;;;;;2.00;1.00;;;;;;;;3845731;28;17728514;-61
2023/08/09 05:15:39;;;;;;;;;1.00;1.00;;;;;;;;5071258;28;51242;-61
2023/08/09 05:18:04;;;;;;;;;2.00;2.00;;;;;;;;5056226;28;51006;-61
2023/08/09 05:20:29;;;;;;;;;2.00;1.33;;;;;;;;5055358;28;51136;-61
2023/08/09 05:31:43;;;;;;;;;;;;;;;;;;4335586;28;234070742;-59
2023/08/09 05:34:08;;;;;;;;;1.00;1.00;;;;;;;;843870;28;120715647;-61
2023/08/09 05:36:36;;;;;;;;;1.00;1.00;;;;;;;;5055207;28;51102;-61
2023/08/09 05:39:01;;;;;;;;;1.00;1.00;;;;;;;;5054847;28;50975;-61
2023/08/09 05:41:27;;;;;;;;;1.33;1.33;;;;;;;;5054722;28;51164;-60
2023/08/09 05:52:11;;;;;;;;;;;;;;;;;;1744691;28;315091527;-60
2023/08/09 06:00:27;;;;;;;;;0.50;0.50;;;;;;;;2;261077871;261077871;-61
2023/08/09 06:10:23;;;;;;;;;0.00;0.00;;;;;;;;2;315100205;315100205;-61
2023/08/09 06:15:16;;;;;;;;;3.50;1.50;;;;;;;;2;261080598;261080598;-59
2023/08/09 06:17:41;;;;;;;;;1.67;1.67;;;;;;;;5040726;28;52774;-59
2023/08/09 06:20:06;;;;;;;;;1.00;1.00;;;;;;;;5014213;28;1193327;-60
2023/08/09 06:22:32;;;;;;;;;2.67;2.67;;;;;;;;5054517;28;50828;-60
2023/08/09 06:24:57;;;;;;;;;3.00;1.67;;;;;;;;5054570;28;51297;-60
2023/08/09 06:27:22;;;;;;;;;1.00;1.00;;;;;;;;5054043;28;51694;-60
2023/08/09 06:29:47;;;;;;;;;1.00;1.00;;;;;;;;5054603;28;51078;-60
2023/08/09 06:32:13;;;;;;;;;2.33;1.33;;;;;;;;5054435;28;50915;-60
2023/08/09 06:34:38;;;;;;;;;2.00;2.00;;;;;;;;5054562;28;51011;-60
2023/08/09 06:37:04;;;;;;;;;2.00;2.00;;;;;;;;5053930;28;50910;-60
2023/08/09 06:39:29;;;;;;;;;2.00;2.00;;;;;;;;5054419;28;51382;-62
2023/08/09 06:41:54;;;;;;;;;2.00;1.00;;;;;;;;5054468;28;51088;-61
2023/08/09 06:44:19;;;;;;;;;1.67;1.67;;;;;;;;5054522;28;51009;-61
2023/08/09 06:46:45;;;;;;;;;1.67;1.00;;;;;;;;5054445;28;52032;-60
2023/08/09 06:49:10;;;;;;;;;2.00;1.67;;;;;;;;5054215;28;51119;-61
2023/08/09 06:51:35;;;;;;;;;2.00;2.00;;;;;;;;5054316;28;51068;-61
2023/08/09 06:54:00;;;;;;;;;1.33;1.33;;;;;;;;5054248;28;51182;-61
2023/08/09 06:56:25;;;;;;;;;1.33;1.33;;;;;;;;5054179;28;52214;-61
2023/08/09 06:58:51;;;;;;;;;1.67;1.67;;;;;;;;5054080;28;51048;-61
2023/08/09 07:01:17;;;;;;;;;1.33;1.33;;;;;;;;5054475;28;51223;-61
2023/08/09 07:03:56;;;;;;;;;;;;;;;;;;1744074;28;109478733;-61
2023/08/09 07:06:22;;;;;;;;;3.50;2.75;;;;;;;;5051294;28;50978;-60
2023/08/09 07:08:47;;;;;;;;;1.00;1.00;;;;;;;;5053316;28;51145;-61
2023/08/09 07:11:13;;;;;;;;;2.00;2.00;;;;;;;;5053982;28;51260;-61
2023/08/09 07:13:38;;;;;;;;;2.33;2.00;;;;;;;;5053784;28;50954;-61
2023/08/09 07:16:04;;;;;;;;;3.00;2.33;;;;;;;;5054111;28;51085;-61
2023/08/09 07:18:29;;;;;;;;;2.00;1.00;;;;;;;;5052173;28;50993;-61
2023/08/09 07:20:54;;;;;;;;;3.00;2.00;;;;;;;;5053540;28;50924;-61
2023/08/09 07:23:19;;;;;;;;;1.00;1.00;;;;;;;;5053511;28;51074;-61
2023/08/09 07:25:45;;;;;;;;;2.00;1.33;;;;;;;;5052293;28;50928;-61
2023/08/09 07:28:11;;;;;;;;;2.00;2.00;;;;;;;;5053327;28;51314;-61
2023/08/09 07:30:36;;;;;;;;;2.00;2.00;;;;;;;;5053349;28;50877;-61
2023/08/09 07:33:02;;;;;;;;;2.00;1.00;;;;;;;;5053613;28;51123;-61
2023/08/09 07:35:27;;;;;;;;;3.00;2.00;;;;;;;;5053343;28;51304;-62
2023/08/09 07:37:52;;;;;;;;;2.00;2.00;;;;;;;;5053187;28;51835;-60
2023/08/09 07:40:17;;;;;;;;;1.67;1.67;;;;;;;;5053550;28;51136;-62
2023/08/09 07:42:43;;;;;;;;;2.00;2.00;;;;;;;;5053263;28;51695;-60
2023/08/09 07:45:09;;;;;;;;;3.00;3.00;;;;;;;;5053525;28;51053;-60
2023/08/09 07:47:34;;;;;;;;;2.33;2.00;;;;;;;;5051518;28;51834;-61
2023/08/09 07:50:00;;;;;;;;;5.33;4.00;;;;;;;;5053013;28;51088;-60
2023/08/09 07:52:25;;;;;;;;;1.00;1.00;;;;;;;;5030122;28;684217;-62
2023/08/09 07:54:50;;;;;;;;;1.00;1.00;;;;;;;;5053621;28;50883;-62
2023/08/09 07:57:15;;;;;;;;;2.00;2.00;;;;;;;;5052996;28;51178;-61
2023/08/09 07:59:40;;;;;;;;;2.00;2.00;;;;;;;;5052950;28;51045;-64
2023/08/09 08:02:06;;;;;;;;;2.00;2.00;;;;;;;;5053008;28;51049;-60
2023/08/09 08:04:31;;;;;;;;;1.33;1.33;;;;;;;;5053265;28;51350;-61
2023/08/09 08:06:56;;;;;;;;;2.33;2.33;;;;;;;;5052858;28;51975;-61
2023/08/09 08:09:23;;;;;;;;;4.00;4.00;;;;;;;;5053014;28;51152;-61
2023/08/09 08:11:48;;;;;;;;;2.33;2.33;;;;;;;;5049244;28;52199;-60
2023/08/09 08:14:14;;;;;;;;;6.00;4.00;;;;;;;;5053151;28;51364;-60
2023/08/09 08:16:40;;;;;;;;;3.67;3.67;;;;;;;;5052513;28;51763;-60
2023/08/09 08:19:05;;;;;;;;;2.67;2.67;;;;;;;;5052906;28;51004;-61
2023/08/09 08:21:30;;;;;;;;;3.00;3.00;;;;;;;;5051261;28;51274;-61
2023/08/09 08:23:59;;;;;;;;;3.00;3.00;;;;;;;;5052954;28;50859;-61
2023/08/09 08:26:25;;;;;;;;;1.33;1.00;;;;;;;;5052735;28;51066;-60
2023/08/09 08:28:50;;;;;;;;;3.00;3.00;;;;;;;;5051047;28;51048;-60
2023/08/09 08:31:19;;;;;;;;;4.00;3.00;;;;;;;;5052590;28;50979;-60
2023/08/09 08:33:45;;;;;;;;;2.00;2.00;;;;;;;;5052865;28;50846;-60
2023/08/09 08:36:10;;;;;;;;;2.00;2.00;;;;;;;;5051302;28;51840;-63
2023/08/09 08:41:08;;;;;;;;;;;;;;;;;;1046164;28;234071137;-60
2023/08/09 08:52:18;;;;;;;;;0.50;0.50;;;;;;;;2614035;28;315092633;-61
2023/08/09 08:54:44;;;;;;;;;2.00;2.00;;;;;;;;3430183;28;46460288;-61
2023/08/09 08:57:09;;;;;;;;;1.33;1.33;;;;;;;;5052327;28;51197;-63
2023/08/09 08:59:34;;;;;;;;;1.67;1.33;;;;;;;;5051911;28;50958;-61
2023/08/09 09:02:01;;;;;;;;;2.33;2.00;;;;;;;;5052024;28;51081;-61
2023/08/09 09:04:26;;;;;;;;;2.00;1.67;;;;;;;;5050559;28;51165;-61
2023/08/09 09:06:51;;;;;;;;;2.00;2.00;;;;;;;;5052031;28;50996;-61
2023/08/09 09:09:20;;;;;;;;;3.00;2.00;;;;;;;;5051717;28;51999;-62
2023/08/09 09:11:45;;;;;;;;;2.00;2.00;;;;;;;;5052306;28;50953;-62
2023/08/09 09:14:11;;;;;;;;;3.00;3.00;;;;;;;;5052226;28;50959;-61
2023/08/09 09:16:37;;;;;;;;;3.00;2.00;;;;;;;;5052426;28;50875;-61
2023/08/09 09:19:02;;;;;;;;;2.00;2.00;;;;;;;;5051720;28;51301;-62
2023/08/09 09:21:31;;;;;;;;;1.67;1.33;;;;;;;;5051507;28;51117;-62
2023/08/09 09:23:57;;;;;;;;;1.33;1.33;;;;;;;;5038126;28;51105;-61
2023/08/09 09:26:23;;;;;;;;;3.00;3.00;;;;;;;;5051720;28;50976;-61
2023/08/09 09:28:48;;;;;;;;;3.00;3.00;;;;;;;;5051392;28;50986;-61
2023/08/09 09:31:17;;;;;;;;;3.67;3.00;;;;;;;;5051265;28;51045;-61
2023/08/09 09:33:51;;;;;;;;;8.67;8.33;;;;;;;;5051219;28;51002;-61
2023/08/09 09:36:17;;;;;;;;;2.33;2.33;;;;;;;;5051351;28;51153;-62
2023/08/09 09:38:43;;;;;;;;;10.00;10.00;;;;;;;;5051372;28;52656;-61
2023/08/09 09:41:09;;;;;;;;;2.67;2.67;;;;;;;;5051513;28;51056;-61
2023/08/09 09:43:41;;;;;;;;;1.00;1.00;;;;;;;;5051472;28;51106;-62
2023/08/09 09:46:25;;;;;;;;;2.33;1.33;;;;;;;;5051449;28;51023;-62
2023/08/09 09:49:00;;;;;;;;;1.33;1.33;;;;;;;;5052511;28;53021;-62
2023/08/09 09:51:26;;;;;;;;;1.00;1.00;;;;;;;;5054414;28;50868;-62
2023/08/09 09:53:52;;;;;;;;;2.00;2.00;;;;;;;;5054834;28;51073;-63
2023/08/09 09:56:17;;;;;;;;;3.00;2.00;;;;;;;;5054942;28;50893;-62
2023/08/09 09:58:43;;;;;;;;;2.67;2.67;;;;;;;;5054516;28;51737;-62
2023/08/09 10:01:09;;;;;;;;;2.00;2.00;;;;;;;;5054724;28;50853;-61
2023/08/09 10:03:36;;;;;;;;;2.00;2.00;;;;;;;;5054546;28;51151;-61
2023/08/09 10:06:02;;;;;;;;;2.00;2.00;;;;;;;;5054176;28;51061;-62
2023/08/09 10:08:28;;;;;;;;;2.00;2.00;;;;;;;;5053796;28;51055;-62
2023/08/09 10:10:55;;;;;;;;;3.67;3.00;;;;;;;;5041017;28;50979;-62
2023/08/09 10:13:21;;;;;;;;;1.67;1.67;;;;;;;;5049206;28;52089;-61
2023/08/09 10:15:50;;;;;;;;;2.00;2.00;;;;;;;;5041406;28;51206;-61
2023/08/09 10:18:15;;;;;;;;;1.33;1.33;;;;;;;;5053988;28;51139;-62
2023/08/09 10:20:44;;;;;;;;;2.00;2.00;;;;;;;;5054115;28;51018;-61
2023/08/09 10:23:18;;;;;;;;;5.67;5.67;;;;;;;;5054083;28;51102;-62
2023/08/09 10:25:47;;;;;;;;;3.00;3.00;;;;;;;;5054531;28;51077;-62
2023/08/09 10:28:12;;;;;;;;;4.00;3.00;;;;;;;;5053956;28;51944;-62
2023/08/09 10:30:43;;;;;;;;;4.00;3.00;;;;;;;;5053974;28;51027;-62
2023/08/09 10:33:09;;;;;;;;;3.00;3.00;;;;;;;;5053970;28;51020;-61
2023/08/09 10:35:45;;;;;;;;;5.00;4.00;;;;;;;;5053913;28;50915;-61
2023/08/09 10:38:14;;;;;;;;;4.33;3.67;;;;;;;;5053674;28;51111;-62
2023/08/09 10:48:29;;;;;;;;;;;;;;;;;;4187348;28;261075113;-62
2023/08/09 10:52:15;;;;;;;;;5.00;0.50;;;;;;;;2;215061612;215061612;-62
2023/08/09 10:54:42;;;;;;;;;2.00;2.00;;;;;;;;739587;28;114811772;-61
2023/08/09 10:58:06;;;;;;;;;;;;;;;;;;132343;28;199999650;-63
2023/08/09 11:00:38;;;;;;;;;3.25;3.25;;;;;;;;5049906;28;51265;-62
2023/08/09 11:03:04;;;;;;;;;3.67;3.67;;;;;;;;5052000;28;51092;-63
2023/08/09 11:05:29;;;;;;;;;4.33;4.33;;;;;;;;5053147;28;51180;-61
2023/08/09 11:07:58;;;;;;;;;3.67;3.33;;;;;;;;5053560;28;51009;-62
2023/08/09 11:10:30;;;;;;;;;4.00;3.00;;;;;;;;5053206;28;52183;-61
2023/08/09 11:12:55;;;;;;;;;3.33;3.00;;;;;;;;5053434;28;50989;-61
2023/08/09 11:15:21;;;;;;;;;3.00;3.00;;;;;;;;5053123;28;51219;-61
2023/08/09 11:17:47;;;;;;;;;3.67;3.00;;;;;;;;5052188;28;50982;-61
2023/08/09 11:20:13;;;;;;;;;2.67;2.67;;;;;;;;5052563;28;52011;-62
2023/08/09 11:22:39;;;;;;;;;4.00;3.33;;;;;;;;5053059;28;51093;-62
2023/08/09 11:25:06;;;;;;;;;4.00;4.00;;;;;;;;5052704;28;51149;-62
2023/08/09 11:27:32;;;;;;;;;4.67;4.67;;;;;;;;5068511;28;51275;-62
2023/08/09 11:29:57;;;;;;;;;5.33;5.00;;;;;;;;5052668;28;51113;-62
2023/08/09 11:32:26;;;;;;;;;4.00;3.33;;;;;;;;5053229;28;51164;-60
2023/08/09 11:34:52;;;;;;;;;4.00;3.00;;;;;;;;5053039;28;51033;-61
2023/08/09 11:37:17;;;;;;;;;3.00;3.00;;;;;;;;5052958;28;51034;-63
2023/08/09 11:39:42;;;;;;;;;3.33;3.00;;;;;;;;5052725;28;51839;-62
2023/08/09 11:42:07;;;;;;;;;3.00;3.00;;;;;;;;5052934;28;50905;-62
2023/08/09 11:44:38;;;;;;;;;3.00;3.00;;;;;;;;5068220;28;51208;-62
2023/08/09 11:47:04;;;;;;;;;3.00;3.00;;;;;;;;5053216;28;51130;-62
2023/08/09 11:49:30;;;;;;;;;3.67;3.00;;;;;;;;5052201;28;51725;-62
2023/08/09 11:51:56;;;;;;;;;4.00;4.00;;;;;;;;5052609;28;51147;-62
2023/08/09 11:54:21;;;;;;;;;3.00;3.00;;;;;;;;5052808;28;51216;-62
2023/08/09 11:56:47;;;;;;;;;3.67;3.33;;;;;;;;5053096;28;51082;-63
2023/08/09 11:59:15;;;;;;;;;4.33;4.33;;;;;;;;5052239;28;52007;-62
2023/08/09 12:01:44;;;;;;;;;5.00;5.00;;;;;;;;5052931;28;50979;-63
2023/08/09 12:04:10;;;;;;;;;2.00;2.00;;;;;;;;5052242;28;50963;-62
2023/08/09 12:06:36;;;;;;;;;4.00;4.00;;;;;;;;5052354;28;51224;-62
2023/08/09 12:09:20;;;;;;;;;5.00;4.00;;;;;;;;5052073;28;52558;-62
2023/08/09 12:11:49;;;;;;;;;4.00;4.00;;;;;;;;5051744;28;50867;-63
2023/08/09 12:14:14;;;;;;;;;3.00;3.00;;;;;;;;5048808;28;51066;-62
2023/08/09 12:16:39;;;;;;;;;4.00;4.00;;;;;;;;5051024;28;51512;-62
2023/08/09 12:19:05;;;;;;;;;2.00;2.00;;;;;;;;5052468;28;50986;-61
2023/08/09 12:21:30;;;;;;;;;3.33;3.33;;;;;;;;5052280;28;51184;-63
2023/08/09 12:23:55;;;;;;;;;4.00;4.00;;;;;;;;5052536;28;51138;-62
2023/08/09 12:26:20;;;;;;;;;4.00;4.00;;;;;;;;5052516;28;50915;-64
2023/08/09 12:28:46;;;;;;;;;4.33;4.33;;;;;;;;5051995;28;51516;-61
2023/08/09 12:31:12;;;;;;;;;4.33;3.33;;;;;;;;5052065;28;50940;-64
2023/08/09 12:33:37;;;;;;;;;5.00;4.00;;;;;;;;5052457;28;51133;-63
2023/08/09 12:36:03;;;;;;;;;4.67;4.67;;;;;;;;5051896;28;50882;-62
2023/08/09 12:38:28;;;;;;;;;8.67;8.33;;;;;;;;5050598;28;53797;-62
2023/08/09 12:40:54;;;;;;;;;5.00;5.00;;;;;;;;5052047;28;50978;-62
2023/08/09 12:43:19;;;;;;;;;5.00;5.00;;;;;;;;5052300;28;51096;-62
2023/08/09 12:45:45;;;;;;;;;4.00;4.00;;;;;;;;5052189;28;50923;-62
2023/08/09 12:48:10;;;;;;;;;4.67;4.67;;;;;;;;5050558;28;54308;-63
2023/08/09 12:50:35;;;;;;;;;5.00;5.00;;;;;;;;5051779;28;50977;-63
2023/08/09 12:53:01;;;;;;;;;4.33;3.67;;;;;;;;5051822;28;50885;-62
2023/08/09 12:55:26;;;;;;;;;5.33;5.33;;;;;;;;5051914;28;50835;-61
2023/08/09 12:57:51;;;;;;;;;5.00;5.00;;;;;;;;5050134;28;53726;-62
2023/08/09 13:00:20;;;;;;;;;5.67;5.67;;;;;;;;5051498;28;50913;-62
2023/08/09 13:02:45;;;;;;;;;7.33;7.00;;;;;;;;5051642;28;51056;-62
2023/08/09 13:05:12;;;;;;;;;4.67;3.67;;;;;;;;5051305;28;51244;-63
2023/08/09 13:07:37;;;;;;;;;4.00;4.00;;;;;;;;5051526;28;51125;-62
2023/08/09 13:10:02;;;;;;;;;4.67;4.67;;;;;;;;5051227;28;51170;-62
2023/08/09 13:12:28;;;;;;;;;3.67;3.67;;;;;;;;5051608;28;51069;-61
2023/08/09 13:14:53;;;;;;;;;3.67;3.67;;;;;;;;5052095;28;51113;-62
2023/08/09 13:17:18;;;;;;;;;4.00;4.00;;;;;;;;5051699;28;51655;-62
2023/08/09 13:19:44;;;;;;;;;7.33;6.33;;;;;;;;5051540;28;51085;-62
2023/08/09 13:22:09;;;;;;;;;4.00;4.00;;;;;;;;5052090;28;51026;-61
2023/08/09 13:24:34;;;;;;;;;4.33;4.33;;;;;;;;5055136;28;51124;-61
2023/08/09 13:26:59;;;;;;;;;4.00;4.00;;;;;;;;5054335;28;51079;-62
2023/08/09 13:29:24;;;;;;;;;4.00;4.00;;;;;;;;5054932;28;51045;-61
2023/08/09 13:31:50;;;;;;;;;5.00;5.00;;;;;;;;5054833;28;50985;-61
2023/08/09 13:34:15;;;;;;;;;4.00;4.00;;;;;;;;5055110;28;51051;-61
2023/08/09 13:36:40;;;;;;;;;6.00;5.00;;;;;;;;5069676;28;51520;-61
2023/08/09 13:39:07;;;;;;;;;2.67;2.33;;;;;;;;5054443;28;50989;-62
2023/08/09 13:41:33;;;;;;;;;5.33;4.33;;;;;;;;5054391;28;51132;-62
2023/08/09 13:43:58;;;;;;;;;7.33;7.33;;;;;;;;5054294;28;50922;-61
2023/08/09 13:46:23;;;;;;;;;4.00;4.00;;;;;;;;5054225;28;51064;-62
2023/08/09 13:48:48;;;;;;;;;7.33;6.33;;;;;;;;5054801;28;51042;-61
2023/08/09 13:51:14;;;;;;;;;6.67;6.67;;;;;;;;5054346;28;51050;-62
2023/08/09 13:53:40;;;;;;;;;6.67;6.00;;;;;;;;5054753;28;50861;-61
2023/08/09 13:56:05;;;;;;;;;6.00;6.00;;;;;;;;5054101;28;50990;-62
2023/08/09 13:58:30;;;;;;;;;6.33;6.00;;;;;;;;5054483;28;51076;-61
2023/08/09 14:00:55;;;;;;;;;5.00;5.00;;;;;;;;5054168;28;50860;-60
2023/08/09 14:03:21;;;;;;;;;6.00;6.00;;;;;;;;5054513;28;51137;-61
2023/08/09 14:05:46;;;;;;;;;4.00;4.00;;;;;;;;5053545;28;51867;-61
2023/08/09 14:08:11;;;;;;;;;5.33;5.00;;;;;;;;5054371;28;50946;-62
2023/08/09 14:10:38;;;;;;;;;4.33;4.00;;;;;;;;5054277;28;51732;-61
2023/08/09 14:13:04;;;;;;;;;4.00;3.33;;;;;;;;5054567;28;50929;-61
2023/08/09 14:15:29;;;;;;;;;6.67;6.67;;;;;;;;5050167;28;52046;-60
2023/08/09 14:17:55;;;;;;;;;5.67;5.67;;;;;;;;5054198;28;50955;-60
2023/08/09 14:20:20;;;;;;;;;4.33;4.33;;;;;;;;5052505;28;51167;-62
2023/08/09 14:22:47;;;;;;;;;7.00;6.33;;;;;;;;5054603;28;51048;-62
2023/08/09 14:25:13;;;;;;;;;7.00;6.00;;;;;;;;5053610;28;51070;-62
2023/08/09 14:27:38;;;;;;;;;4.00;3.33;;;;;;;;5054041;28;51048;-62
2023/08/09 14:30:04;;;;;;;;;4.00;4.00;;;;;;;;5054031;28;50905;-62
2023/08/09 14:32:29;;;;;;;;;4.67;4.67;;;;;;;;5054489;28;51122;-61
2023/08/09 14:34:54;;;;;;;;;6.00;6.00;;;;;;;;5052958;28;50930;-61
2023/08/09 14:37:20;;;;;;;;;4.67;4.67;;;;;;;;5054371;28;50923;-61
2023/08/09 14:39:45;;;;;;;;;4.00;4.00;;;;;;;;5052436;28;50971;-61
2023/08/09 14:42:10;;;;;;;;;5.00;5.00;;;;;;;;5053779;28;51327;-61
2023/08/09 14:44:35;;;;;;;;;4.33;4.33;;;;;;;;5053523;28;51837;-61
2023/08/09 14:47:00;;;;;;;;;5.67;4.67;;;;;;;;5054080;28;50993;-61
2023/08/09 14:49:26;;;;;;;;;5.00;5.00;;;;;;;;5053833;28;51248;-61
2023/08/09 14:51:51;;;;;;;;;3.67;3.67;;;;;;;;5053835;28;51185;-61
2023/08/09 14:54:16;;;;;;;;;5.00;5.00;;;;;;;;5052384;28;53389;-61
2023/08/09 14:56:41;;;;;;;;;5.00;5.00;;;;;;;;5053865;28;51000;-61
2023/08/09 14:59:09;;;;;;;;;4.00;3.00;;;;;;;;5053979;28;51004;-62
2023/08/09 15:01:36;;;;;;;;;4.00;4.00;;;;;;;;5054062;28;51199;-61
2023/08/09 15:04:04;;;;;;;;;6.00;6.00;;;;;;;;5052919;28;51749;-62
2023/08/09 15:06:30;;;;;;;;;4.67;4.67;;;;;;;;5052759;28;50962;-62
2023/08/09 15:08:55;;;;;;;;;4.00;4.00;;;;;;;;5052459;28;51232;-62
2023/08/09 15:11:20;;;;;;;;;6.33;6.33;;;;;;;;5053148;28;51374;-62
2023/08/09 15:13:45;;;;;;;;;5.00;5.00;;;;;;;;5052651;28;51951;-62
2023/08/09 15:16:14;;;;;;;;;4.00;4.00;;;;;;;;5052950;28;50938;-62
2023/08/09 15:18:39;;;;;;;;;4.33;4.33;;;;;;;;5053089;28;51069;-62
2023/08/09 15:21:04;;;;;;;;;4.00;4.00;;;;;;;;5053077;28;51002;-61
2023/08/09 15:23:29;;;;;;;;;6.00;6.00;;;;;;;;5052665;28;51164;-62
2023/08/09 15:25:54;;;;;;;;;5.00;4.00;;;;;;;;5052810;28;50970;-62
2023/08/09 15:28:20;;;;;;;;;10.00;9.33;;;;;;;;5053005;28;51153;-61
2023/08/09 15:30:45;;;;;;;;;4.33;4.00;;;;;;;;5053086;28;51173;-61
2023/08/09 15:33:11;;;;;;;;;5.00;4.33;;;;;;;;5052714;28;52808;-62
2023/08/09 15:35:36;;;;;;;;;7.00;7.00;;;;;;;;5052375;28;51064;-62
2023/08/09 15:38:01;;;;;;;;;7.00;6.33;;;;;;;;5052806;28;51146;-62
2023/08/09 15:40:26;;;;;;;;;5.67;4.67;;;;;;;;5052881;28;50878;-62
2023/08/09 15:42:51;;;;;;;;;3.00;3.00;;;;;;;;5052327;28;51937;-61
2023/08/09 15:45:17;;;;;;;;;4.67;4.33;;;;;;;;5051765;28;51047;-61
2023/08/09 15:47:43;;;;;;;;;6.67;6.67;;;;;;;;5052044;28;50917;-60
2023/08/09 15:50:11;;;;;;;;;6.00;5.00;;;;;;;;5052645;28;51410;-61
2023/08/09 15:52:37;;;;;;;;;4.67;4.67;;;;;;;;5052113;28;51783;-62
2023/08/09 15:55:02;;;;;;;;;4.00;4.00;;;;;;;;5052321;28;51053;-61
2023/08/09 15:57:27;;;;;;;;;4.00;4.00;;;;;;;;5052348;28;51171;-61
2023/08/09 15:59:53;;;;;;;;;6.00;5.33;;;;;;;;4894319;28;4550907;-61
2023/08/09 16:02:18;;;;;;;;;38.75;34.25;;;;;;;;5052306;28;52096;-61
2023/08/09 16:04:43;;;;;;;;;10.00;9.33;;;;;;;;5052311;28;50997;-61
2023/08/09 16:07:09;;;;;;;;;4.00;4.00;;;;;;;;5052378;28;51003;-62
2023/08/09 16:09:38;;;;;;;;;5.00;4.33;;;;;;;;5052129;28;51049;-62
2023/08/09 16:12:04;;;;;;;;;4.00;4.00;;;;;;;;5051854;28;51007;-62
2023/08/09 16:14:29;;;;;;;;;3.00;3.00;;;;;;;;5067733;28;50869;-64
2023/08/09 16:16:55;;;;;;;;;4.33;4.33;;;;;;;;5050906;28;50977;-62
2023/08/09 16:19:20;;;;;;;;;4.67;4.33;;;;;;;;5052600;28;50902;-61
2023/08/09 16:21:46;;;;;;;;;4.00;4.00;;;;;;;;5051756;28;51717;-62
2023/08/09 16:24:12;;;;;;;;;4.00;3.00;;;;;;;;5052025;28;51092;-62
2023/08/09 16:26:37;;;;;;;;;6.00;5.00;;;;;;;;5050774;28;51157;-62
2023/08/09 16:29:03;;;;;;;;;5.00;5.00;;;;;;;;5051792;28;51300;-62